createdAt,value
2023-03-06T00:03:15.049Z,0.51
2023-03-06T00:07:15.233Z,0.51
2023-03-06T00:11:15.411Z,0.50
2023-03-06T00:15:15.577Z,0.51
2023-03-06T00:19:15.801Z,0.52
2023-03-06T00:23:16.007Z,0.51
2023-03-06T00:27:16.174Z,0.52
2023-03-06T00:31:16.365Z,0.51
2023-03-06T00:35:16.556Z,0.52
2023-03-06T00:39:18.720Z,0.51
2023-03-06T00:43:17.005Z,0.52
2023-03-06T00:47:17.004Z,0.51
2023-03-06T00:51:16.917Z,0.51
2023-03-06T00:55:17.250Z,0.51
2023-03-06T00:59:16.847Z,0.51
2023-03-06T01:03:16.787Z,0.51
2023-03-06T01:07:16.819Z,0.50
2023-03-06T01:11:16.729Z,0.51
2023-03-06T01:15:16.690Z,0.52
2023-03-06T01:19:16.670Z,0.51
2023-03-06T01:23:16.641Z,0.50
2023-03-06T01:27:16.623Z,0.51
2023-03-06T01:31:16.640Z,0.51
2023-03-06T01:35:16.528Z,0.51
2023-03-06T01:39:16.502Z,0.51
2023-03-06T01:43:16.474Z,0.51
2023-03-06T01:47:16.443Z,0.52
2023-03-06T01:51:16.408Z,0.52
2023-03-06T01:55:16.353Z,0.52
2023-03-06T01:59:16.309Z,0.52
2023-03-06T02:03:16.487Z,0.52
2023-03-06T02:07:16.441Z,0.52
2023-03-06T02:11:16.480Z,0.51
2023-03-06T02:15:16.358Z,0.51
2023-03-06T02:19:16.408Z,0.51
2023-03-06T02:23:16.297Z,0.51
2023-03-06T02:27:16.265Z,0.51
2023-03-06T02:31:16.238Z,0.51
2023-03-06T02:35:16.198Z,0.51
2023-03-06T02:39:16.145Z,0.52
2023-03-06T02:43:16.187Z,0.51
2023-03-06T02:47:16.370Z,0.51
2023-03-06T02:51:16.519Z,0.51
2023-03-06T02:55:16.748Z,0.52
2023-03-06T02:59:17.044Z,0.51
2023-03-06T03:03:17.128Z,0.52
2023-03-06T03:07:17.342Z,0.51
2023-03-06T03:11:17.304Z,0.51
2023-03-06T03:15:17.292Z,0.50
2023-03-06T03:19:17.250Z,0.50
2023-03-06T03:23:17.242Z,0.52
2023-03-06T03:27:17.168Z,0.52
2023-03-06T03:31:17.290Z,0.51
2023-03-06T03:35:17.083Z,0.51
2023-03-06T03:39:17.068Z,0.51
2023-03-06T03:43:17.006Z,0.51
2023-03-06T03:47:16.980Z,0.52
2023-03-06T03:51:16.946Z,0.51
2023-03-06T03:55:16.921Z,0.50
2023-03-06T03:59:16.850Z,0.51
2023-03-06T04:03:16.825Z,0.51
2023-03-06T04:07:16.781Z,0.52
2023-03-06T04:11:16.729Z,0.51
2023-03-06T04:15:16.733Z,0.51
2023-03-06T04:19:16.677Z,0.50
2023-03-06T04:23:16.711Z,0.51
2023-03-06T04:27:16.731Z,0.50
2023-03-06T04:31:16.795Z,0.51
2023-03-06T04:35:16.879Z,0.51
2023-03-06T04:39:16.970Z,0.51
2023-03-06T04:43:16.935Z,0.51
2023-03-06T04:47:19.029Z,0.51
2023-03-06T04:51:17.017Z,0.51
2023-03-06T04:55:17.063Z,0.51
2023-03-06T04:59:17.049Z,0.52
2023-03-06T05:03:17.028Z,0.51
2023-03-06T05:07:16.997Z,0.51
2023-03-06T05:11:17.026Z,0.51
2023-03-06T05:15:16.981Z,0.51
2023-03-06T05:19:17.004Z,0.51
2023-03-06T05:23:16.980Z,0.51
2023-03-06T05:27:17.050Z,0.52
2023-03-06T05:31:17.061Z,0.51
2023-03-06T05:35:16.890Z,0.52
2023-03-06T05:39:16.874Z,0.52
2023-03-06T05:43:16.853Z,0.50
2023-03-06T05:47:16.823Z,0.51
2023-03-06T05:51:16.844Z,0.52
2023-03-06T05:55:16.861Z,0.51
2023-03-06T05:59:16.810Z,0.51
2023-03-06T06:03:16.804Z,0.52
2023-03-06T06:07:16.753Z,0.51
2023-03-06T06:11:16.758Z,0.51
2023-03-06T06:15:16.743Z,0.51
2023-03-06T06:19:17.384Z,0.50
2023-03-06T06:23:16.674Z,0.51
2023-03-06T06:27:16.653Z,0.51
2023-03-06T06:31:16.676Z,0.53
2023-03-06T06:35:16.625Z,0.52
2023-03-06T06:39:16.668Z,0.58
2023-03-06T06:43:16.908Z,0.71
2023-03-06T06:47:25.665Z,0.78
2023-03-06T06:51:17.872Z,0.87
2023-03-06T06:55:16.782Z,0.99
2023-03-06T06:59:17.682Z,1.10
2023-03-06T07:03:17.394Z,1.23
2023-03-06T07:07:17.202Z,1.37
2023-03-06T07:11:17.404Z,1.43
2023-03-06T07:15:17.224Z,1.51
2023-03-06T07:19:17.408Z,1.55
2023-03-06T07:23:17.353Z,1.71
2023-03-06T07:27:17.305Z,1.79
2023-03-06T07:31:17.463Z,1.89
2023-03-06T07:35:20.387Z,2.01
2023-03-06T07:39:17.203Z,2.06
2023-03-06T07:43:19.569Z,2.19
2023-03-06T07:47:17.408Z,2.21
2023-03-06T07:51:17.453Z,2.08
2023-03-06T07:55:17.446Z,2.22
2023-03-06T07:59:17.076Z,2.14
2023-03-06T08:03:17.077Z,2.01
2023-03-06T08:07:16.950Z,1.89
2023-03-06T08:11:16.926Z,1.75
2023-03-06T08:15:16.874Z,1.71
2023-03-06T08:19:16.839Z,1.63
2023-03-06T08:23:16.953Z,1.58
2023-03-06T08:27:16.746Z,1.59
2023-03-06T08:31:16.798Z,1.58
2023-03-06T08:35:16.735Z,1.55
2023-03-06T08:39:16.977Z,1.54
2023-03-06T08:43:16.768Z,1.58
2023-03-06T08:47:16.943Z,1.49
2023-03-06T08:51:17.436Z,1.52
2023-03-06T08:55:17.458Z,1.50
2023-03-06T08:59:16.989Z,1.54
2023-03-06T09:03:16.926Z,1.56
2023-03-06T09:07:16.891Z,1.69
2023-03-06T09:11:16.884Z,1.60
2023-03-06T09:15:16.922Z,1.61
2023-03-06T09:19:16.783Z,1.62
2023-03-06T09:23:16.750Z,1.83
2023-03-06T09:27:16.714Z,1.64
2023-03-06T09:31:16.856Z,1.61
2023-03-06T09:35:16.647Z,1.59
2023-03-06T09:39:16.969Z,1.51
2023-03-06T09:43:16.987Z,1.62
2023-03-06T09:47:16.981Z,1.62
2023-03-06T09:51:16.695Z,1.37
2023-03-06T09:55:16.958Z,1.13
2023-03-06T09:59:17.484Z,1.01
2023-03-06T10:03:17.498Z,0.91
2023-03-06T10:07:17.471Z,0.74
2023-03-06T10:11:17.298Z,0.68
2023-03-06T10:15:17.323Z,0.61
2023-03-06T10:19:17.470Z,0.56
2023-03-06T10:23:17.498Z,0.57
2023-03-06T10:27:17.654Z,0.56
2023-03-06T10:31:18.582Z,0.51
2023-03-06T10:35:18.039Z,0.54
2023-03-06T10:39:18.493Z,0.56
2023-03-06T10:43:18.259Z,0.39
2023-03-06T10:47:18.596Z,0.50
2023-03-06T10:51:19.310Z,0.65
2023-03-06T10:55:18.990Z,0.62
2023-03-06T10:59:18.704Z,0.70
2023-03-06T11:03:19.071Z,0.72
2023-03-06T11:07:18.986Z,0.78
2023-03-06T11:11:35.037Z,0.75
2023-03-06T11:15:19.698Z,0.75
2023-03-06T11:19:18.635Z,0.69
2023-03-06T11:23:19.031Z,0.65
2023-03-06T11:27:19.006Z,0.70
2023-03-06T11:31:18.579Z,0.73
2023-03-06T11:35:18.511Z,0.71
2023-03-06T11:39:18.543Z,0.70
2023-03-06T11:43:18.539Z,1.58
2023-03-06T11:47:18.405Z,2.28
2023-03-06T11:51:18.513Z,2.77
2023-03-06T11:55:18.337Z,3.55
2023-03-06T11:59:18.294Z,4.14
2023-03-06T12:03:18.290Z,4.45
2023-03-06T12:07:18.234Z,4.95
2023-03-06T12:15:18.249Z,5.91
2023-03-06T12:19:18.471Z,6.12
2023-03-06T12:23:18.581Z,6.20
2023-03-06T12:27:19.048Z,6.67
2023-03-06T12:31:19.059Z,6.42
2023-03-06T12:35:19.113Z,6.70
2023-03-06T12:39:19.134Z,6.81
2023-03-06T12:43:19.375Z,6.51
2023-03-06T12:47:19.593Z,6.38
2023-03-06T12:51:19.272Z,6.19
2023-03-06T12:55:22.693Z,6.59
2023-03-06T12:59:19.227Z,6.50
2023-03-06T13:03:19.181Z,7.02
2023-03-06T13:07:19.136Z,6.72
2023-03-06T13:11:19.266Z,6.45
2023-03-06T13:15:19.228Z,6.37
2023-03-06T13:19:19.203Z,6.33
2023-03-06T13:23:19.598Z,6.10
2023-03-06T13:27:19.108Z,5.89
2023-03-06T13:31:27.220Z,5.77
2023-03-06T13:35:20.106Z,5.64
2023-03-06T13:39:19.021Z,5.67
2023-03-06T13:43:19.234Z,5.61
2023-03-06T13:47:19.414Z,5.45
2023-03-06T13:51:19.550Z,5.33
2023-03-06T13:55:19.638Z,5.14
2023-03-06T13:59:19.657Z,4.80
2023-03-06T14:03:19.655Z,4.59
2023-03-06T14:07:19.709Z,1.51
2023-03-06T14:11:19.822Z,1.07
2023-03-06T14:15:19.788Z,1.01
2023-03-06T14:19:19.776Z,1.39
2023-03-06T14:23:19.684Z,1.82
2023-03-06T14:27:19.703Z,2.14
2023-03-06T14:31:19.668Z,2.20
2023-03-06T14:35:19.677Z,2.24
2023-03-06T14:39:19.579Z,2.32
2023-03-06T14:43:19.526Z,2.37
2023-03-06T14:47:19.496Z,2.34
2023-03-06T14:51:19.470Z,2.30
2023-03-06T14:55:19.409Z,2.36
2023-03-06T14:59:19.386Z,2.43
2023-03-06T15:03:19.613Z,2.41
2023-03-06T15:07:19.319Z,2.43
2023-03-06T15:11:19.254Z,2.40
2023-03-06T15:15:19.668Z,2.39
2023-03-06T15:19:19.316Z,2.38
2023-03-06T15:23:19.720Z,2.40
2023-03-06T15:27:19.536Z,2.35
2023-03-06T15:31:19.670Z,2.33
2023-03-06T15:35:19.775Z,2.34
2023-03-06T15:39:19.823Z,2.36
2023-03-06T15:43:19.959Z,2.31
2023-03-06T15:47:20.041Z,2.28
2023-03-06T15:51:20.202Z,2.30
2023-03-06T15:55:20.262Z,2.29
2023-03-06T15:59:20.363Z,2.22
2023-03-06T16:03:20.454Z,2.22
2023-03-06T16:07:20.566Z,2.20
2023-03-06T16:11:20.633Z,2.15
2023-03-06T16:15:20.723Z,2.19
2023-03-06T16:19:27.954Z,2.14
2023-03-06T16:23:21.835Z,2.12
2023-03-06T16:27:21.173Z,2.12
2023-03-06T16:31:20.745Z,2.10
2023-03-06T16:35:20.725Z,2.07
2023-03-06T16:39:20.765Z,2.08
2023-03-06T16:43:20.951Z,2.09
2023-03-06T16:47:20.985Z,2.08
2023-03-06T16:51:21.089Z,2.04
2023-03-06T16:55:21.246Z,2.00
2023-03-06T16:59:21.398Z,1.99
2023-03-06T17:03:21.696Z,1.98
2023-03-06T17:07:21.715Z,1.97
2023-03-06T17:11:21.832Z,1.95
2023-03-06T17:15:21.957Z,1.97
2023-03-06T17:19:22.124Z,1.91
2023-03-06T17:23:22.229Z,1.91
2023-03-06T17:27:22.401Z,1.90
2023-03-06T17:31:22.584Z,1.87
2023-03-06T17:35:22.749Z,1.88
2023-03-06T17:39:22.855Z,1.85
2023-03-06T17:43:22.990Z,1.85
2023-03-06T17:47:23.172Z,1.85
2023-03-06T17:51:23.321Z,1.83
2023-03-06T17:55:23.507Z,1.81
2023-03-06T17:59:23.661Z,1.81
2023-03-06T18:03:23.838Z,1.76
2023-03-06T18:07:24.047Z,1.79
2023-03-06T18:11:24.242Z,1.77
2023-03-06T18:15:24.425Z,1.72
2023-03-06T18:19:24.575Z,1.73
2023-03-06T18:23:24.795Z,1.70
2023-03-06T18:27:25.002Z,1.70
2023-03-06T18:31:25.235Z,1.68
2023-03-06T18:35:25.438Z,1.70
2023-03-06T18:39:25.579Z,1.65
2023-03-06T18:43:25.762Z,1.67
2023-03-06T18:47:25.992Z,1.60
2023-03-06T18:51:26.225Z,1.63
2023-03-06T18:55:26.456Z,1.62
2023-03-06T18:59:26.643Z,1.62
2023-03-06T19:03:26.618Z,1.61
2023-03-06T19:07:26.683Z,1.56
2023-03-06T19:11:26.537Z,1.55
2023-03-06T19:15:26.512Z,1.55
2023-03-06T19:19:26.488Z,1.53
2023-03-06T19:23:26.436Z,1.54
2023-03-06T19:27:26.406Z,1.52
2023-03-06T19:31:26.634Z,1.50
2023-03-06T19:35:26.390Z,1.49
2023-03-06T19:39:26.320Z,1.50
2023-03-06T19:43:26.237Z,1.48
2023-03-06T19:47:26.233Z,1.48
2023-03-06T19:51:26.197Z,1.47
2023-03-06T19:55:26.141Z,1.44
2023-03-06T19:59:26.127Z,1.42
2023-03-06T20:03:26.068Z,1.42
2023-03-06T20:07:26.053Z,1.43
2023-03-06T20:11:26.091Z,1.41
2023-03-06T20:15:26.071Z,1.39
2023-03-06T20:19:26.073Z,1.39
2023-03-06T20:23:26.055Z,1.37
2023-03-06T20:27:25.973Z,1.36
2023-03-06T20:31:26.052Z,1.38
2023-03-06T20:35:25.893Z,1.36
2023-03-06T20:39:25.860Z,1.34
2023-03-06T20:43:25.857Z,1.33
2023-03-06T20:47:25.823Z,1.34
2023-03-06T20:51:25.775Z,1.34
2023-03-06T20:55:25.725Z,1.30
2023-03-06T20:59:25.917Z,1.31
2023-03-06T21:03:25.858Z,1.31
2023-03-06T21:07:25.852Z,1.30
2023-03-06T21:11:25.786Z,1.28
2023-03-06T21:15:25.733Z,1.27
2023-03-06T21:19:25.747Z,1.27
2023-03-06T21:23:25.701Z,1.28
2023-03-06T21:27:25.646Z,1.26
2023-03-06T21:31:25.665Z,1.26
2023-03-06T21:35:25.655Z,1.24
2023-03-06T21:39:25.571Z,1.22
2023-03-06T21:43:25.524Z,1.23
2023-03-06T21:47:25.507Z,1.23
2023-03-06T21:51:25.422Z,1.22
2023-03-06T21:55:25.417Z,1.23
2023-03-06T21:59:25.501Z,1.20
2023-03-06T22:03:25.519Z,1.19
2023-03-06T22:07:25.511Z,1.19
2023-03-06T22:11:25.529Z,1.19
2023-03-06T22:15:25.573Z,1.18
2023-03-06T22:19:25.617Z,1.16
2023-03-06T22:23:25.642Z,1.16
2023-03-06T22:27:25.691Z,1.17
2023-03-06T22:31:25.768Z,1.16
2023-03-06T22:35:25.719Z,1.14
2023-03-06T22:39:25.669Z,1.15
2023-03-06T22:43:25.635Z,1.15
2023-03-06T22:47:25.650Z,1.15
2023-03-06T22:51:25.611Z,1.13
2023-03-06T22:55:25.596Z,1.11
2023-03-06T22:59:25.571Z,1.11
2023-03-06T23:03:25.534Z,1.09
2023-03-06T23:07:25.512Z,1.10
2023-03-06T23:11:25.501Z,1.11
2023-03-06T23:15:25.493Z,1.10
2023-03-06T23:19:25.494Z,1.06
2023-03-06T23:23:25.465Z,1.10
2023-03-06T23:27:25.496Z,1.08
2023-03-06T23:31:25.474Z,1.04
2023-03-06T23:35:25.482Z,1.06
2023-03-06T23:39:25.425Z,1.07
2023-03-06T23:43:25.404Z,1.07
2023-03-06T23:47:25.393Z,1.04
2023-03-06T23:51:25.336Z,1.03
2023-03-06T23:55:25.334Z,1.05
2023-03-06T23:59:25.334Z,1.03
